Ершовка

СКИДКИ НА СМАРТФОНЫ!

Карта отелей и гостиниц, располагающихся рядом с аэропортом Ершовка :

Ершовка Тюменская область 59° 44' 50.7588" N, 70° 29' 26.9988" E
Ершовка Тюменская область 59° 44' 50.7588" N, 70° 29' 26.9988" E
Код аэродрома ИКАО
HEQ6
Код аэродрома RU
ХЕЯ6
Координаты
N59.74743° E070.49083°
Превышение над уровнем моря
76
Основная полоса
06/24
Курс магнитный
059,2/239,2
Длина основной ВПП
30
Ширина основной ВПП
28
Покрытие основной ВПП
Твёрдое (бетон)
Освещение ВПП
Нет
Тип: 
Вертодром
Класс аэродрома: 
Принадлежность: 
ГА
Статус: 
Действующий
Сайт: 
E-mail аэродрома: 
Страна: 
Россия
Регион: 
Тюменская область
Город: 
Дополнительная информация: 
Оператор: нет данных.

Скидки на навигаторы!

Найти трансфер

С помощью этой формы Вы можете найти трансфер из аэропорта Ершовка в город, аэропорт или вокзал:

Погода в аэропортах:

Авиационная погода в Минеральные Воды

Регион: 
Погода METAR: 
URMM 190400Z VRB01MPS 9999 VCTS SCT///CB 20/18 Q1009 RETS R30/290150 NOSIG RMK QFE729/0972
Время наблюдения
2022-08-19T04:00:00Z
Температура C
20.0
Точка росы
18.0
Направление ветра
0
Скорость ветра (узлы)
2
Метео видимость
6.21
Облачность
Нижняя граница облачности (футы)
Явления погоды
VCTS
Условия полета
Аэропорт подробнее: 

Авиационная погода в Калуге (Грабцево)

Регион: 
Погода METAR: 
UUBC 190400Z 02004MPS 330V060 9000 -SHRA SCT066CB 16/15 Q1021 R31/290050 NOSIG RMK QFE749/0998
Время наблюдения
2022-08-19T04:00:00Z
Температура C
16.0
Точка росы
15.0
Направление ветра
20
Скорость ветра (узлы)
8
Метео видимость
5.59
Облачность
SCT
Нижняя граница облачности (футы)
6600
Явления погоды
-SHRA
Условия полета
VFR
SCT – разбросанная отдельная облачность;
-SHRA - слабый ливневой дождь;

Авиационная погода в Яссах

Регион: 
Погода METAR: 
LRIA 190400Z 25004KT 230V290 4000 BR NSC 19/19 Q1012
Время наблюдения
2022-08-19T04:00:00Z
Температура C
19.0
Точка росы
19.0
Направление ветра
250
Скорость ветра (узлы)
4
Метео видимость
2.49
Облачность
CLR
Нижняя граница облачности (футы)
Явления погоды
BR
Условия полета
IFR
CLR — нет облаков ниже 3000 м
BR – дымка (видимость от 1 до 9 км);

Авиационная погода в Сочи

Регион: 
Погода METAR: 
URSS 190400Z 03002MPS 350V060 9999 VCTS -SHRA SCT016 OVC050CB 22/20 Q1008 R06/290060 R02/290060 NOSIG RMK R02/04003MPS MT OBSC QFE755
Время наблюдения
2022-08-19T04:00:00Z
Температура C
22.0
Точка росы
20.0
Направление ветра
30
Скорость ветра (узлы)
4
Метео видимость
6.21
Облачность
SCT
OVC
Нижняя граница облачности (футы)
1600
5000
Явления погоды
VCTS -SHRA
Условия полета
VFR
Аэропорт подробнее: 
SCT – разбросанная отдельная облачность; OVC – сплошная облачность;
-SHRA - слабый ливневой дождь;